createdAt,value
2022-12-31T00:02:04.548Z,100.00
2022-12-31T00:06:26.027Z,100.00
2022-12-31T00:10:28.611Z,100.00
2022-12-31T00:14:30.234Z,100.00
2022-12-31T00:18:31.782Z,100.00
2022-12-31T00:22:33.392Z,100.00
2022-12-31T00:26:35.768Z,100.00
2022-12-31T00:30:37.395Z,100.00
2022-12-31T00:34:38.976Z,100.00
2022-12-31T00:38:43.883Z,100.00
2022-12-31T00:42:45.474Z,100.00
2022-12-31T00:46:47.053Z,100.00
2022-12-31T00:50:48.593Z,100.00
2022-12-31T00:54:50.159Z,100.00
2022-12-31T00:58:52.348Z,100.00
2022-12-31T01:02:53.990Z,100.00
2022-12-31T01:06:55.676Z,100.00
2022-12-31T01:11:15.696Z,100.00
2022-12-31T01:15:17.314Z,100.00
2022-12-31T01:19:25.715Z,100.00
2022-12-31T01:23:27.244Z,100.00
2022-12-31T01:27:29.154Z,100.00
2022-12-31T01:31:30.868Z,100.00
2022-12-31T01:35:35.034Z,100.00
2022-12-31T01:39:36.573Z,100.00
2022-12-31T01:43:54.509Z,100.00
2022-12-31T01:47:59.130Z,100.00
2022-12-31T01:52:04.749Z,100.00
2022-12-31T01:56:07.394Z,100.00
2022-12-31T02:00:10.056Z,100.00
2022-12-31T02:04:13.594Z,100.00
2022-12-31T02:08:16.056Z,100.00
2022-12-31T02:12:17.663Z,100.00
2022-12-31T02:16:27.845Z,100.00
2022-12-31T02:20:59.862Z,100.00
2022-12-31T02:25:21.907Z,100.00
2022-12-31T02:29:55.972Z,100.00
2022-12-31T02:34:17.792Z,100.00
2022-12-31T02:38:33.078Z,100.00
2022-12-31T02:42:34.622Z,100.00
2022-12-31T02:46:47.193Z,100.00
2022-12-31T02:51:23.027Z,100.00
2022-12-31T02:55:24.535Z,100.00
2022-12-31T03:00:07.307Z,100.00
2022-12-31T03:04:30.119Z,100.00
2022-12-31T03:08:31.726Z,100.00
2022-12-31T03:12:47.669Z,100.00
2022-12-31T03:16:49.304Z,100.00
2022-12-31T03:21:17.517Z,100.00
2022-12-31T03:25:37.897Z,100.00
2022-12-31T03:29:39.422Z,100.00
2022-12-31T03:33:41.946Z,100.00
2022-12-31T03:37:43.722Z,100.00
2022-12-31T03:41:45.300Z,100.00
2022-12-31T03:45:52.020Z,100.00
2022-12-31T03:49:53.803Z,100.00
2022-12-31T03:53:55.384Z,100.00
2022-12-31T03:57:57.285Z,100.00
2022-12-31T04:01:58.970Z,100.00
2022-12-31T04:06:00.719Z,100.00
2022-12-31T04:10:04.198Z,100.00
2022-12-31T04:14:05.857Z,100.00
2022-12-31T04:18:07.453Z,100.00
2022-12-31T04:22:09.217Z,100.00
2022-12-31T04:26:10.863Z,100.00
2022-12-31T04:30:13.547Z,100.00
2022-12-31T04:34:15.081Z,100.00
2022-12-31T04:38:16.664Z,100.00
2022-12-31T04:42:18.318Z,100.00
2022-12-31T04:46:26.505Z,100.00
2022-12-31T04:50:28.052Z,100.00
2022-12-31T04:54:29.581Z,100.00
2022-12-31T04:58:31.195Z,100.00
2022-12-31T05:02:32.835Z,100.00
2022-12-31T05:06:34.594Z,100.00
2022-12-31T05:10:36.529Z,100.00
2022-12-31T05:14:38.054Z,100.00
2022-12-31T05:18:39.579Z,100.00
2022-12-31T05:22:41.189Z,100.00
2022-12-31T05:26:42.718Z,100.00
2022-12-31T05:30:44.907Z,100.00
2022-12-31T05:34:46.517Z,100.00
2022-12-31T05:38:48.047Z,100.00
2022-12-31T05:42:50.499Z,100.00
2022-12-31T05:46:52.089Z,100.00
2022-12-31T05:50:54.313Z,100.00
2022-12-31T05:54:56.242Z,100.00
2022-12-31T05:58:57.837Z,100.00
2022-12-31T06:02:59.476Z,100.00
2022-12-31T06:07:01.081Z,100.00
2022-12-31T06:11:02.802Z,100.00
2022-12-31T06:15:05.260Z,100.00
2022-12-31T06:19:06.955Z,100.00
2022-12-31T06:23:08.504Z,100.00
2022-12-31T06:27:10.097Z,100.00
2022-12-31T06:31:14.341Z,100.00
2022-12-31T06:35:16.201Z,100.00
2022-12-31T06:39:17.793Z,100.00
2022-12-31T06:43:19.677Z,100.00
2022-12-31T06:47:21.295Z,100.00
2022-12-31T06:51:22.945Z,100.00
2022-12-31T06:55:25.708Z,100.00
2022-12-31T06:59:29.466Z,100.00
2022-12-31T07:03:51.258Z,100.00
2022-12-31T07:08:07.535Z,100.00
2022-12-31T07:12:43.304Z,100.00
2022-12-31T07:17:03.984Z,100.00
2022-12-31T07:21:13.289Z,100.00
2022-12-31T07:25:17.142Z,100.00
2022-12-31T07:29:48.348Z,100.00
2022-12-31T07:34:01.777Z,100.00
2022-12-31T07:38:21.579Z,100.00
2022-12-31T07:43:00.740Z,100.00
2022-12-31T07:47:05.333Z,100.00
2022-12-31T07:51:09.479Z,100.00
2022-12-31T07:55:14.442Z,100.00
2022-12-31T07:59:36.397Z,100.00
2022-12-31T08:04:10.223Z,100.00
2022-12-31T08:08:39.407Z,100.00
2022-12-31T08:12:41.624Z,100.00
2022-12-31T08:16:43.613Z,100.00
2022-12-31T08:21:15.053Z,100.00
2022-12-31T08:25:26.021Z,99.52
2022-12-31T08:29:31.026Z,98.33
2022-12-31T08:33:44.840Z,97.25
2022-12-31T08:38:18.939Z,97.13
2022-12-31T08:42:44.033Z,97.16
2022-12-31T08:46:45.618Z,96.69
2022-12-31T08:50:47.543Z,96.14
2022-12-31T08:54:49.760Z,95.75
2022-12-31T08:59:00.088Z,95.50
2022-12-31T09:03:26.694Z,94.62
2022-12-31T09:07:38.144Z,94.75
2022-12-31T09:12:01.545Z,96.40
2022-12-31T09:16:16.870Z,96.57
2022-12-31T09:20:44.611Z,96.75
2022-12-31T09:24:47.927Z,96.55
2022-12-31T09:29:10.833Z,95.66
2022-12-31T09:33:31.613Z,95.05
2022-12-31T09:37:50.761Z,94.38
2022-12-31T09:42:04.861Z,94.64
2022-12-31T09:46:18.815Z,94.68
2022-12-31T09:50:38.278Z,94.53
2022-12-31T09:55:09.510Z,94.11
2022-12-31T09:59:23.328Z,93.82
2022-12-31T10:03:35.809Z,93.32
2022-12-31T10:08:04.016Z,91.20
2022-12-31T10:12:23.953Z,90.30
2022-12-31T10:16:45.159Z,88.98
2022-12-31T10:21:10.075Z,89.84
2022-12-31T10:25:38.430Z,89.48
2022-12-31T10:29:50.007Z,89.37
2022-12-31T10:34:10.379Z,88.59
2022-12-31T10:38:34.096Z,87.65
2022-12-31T10:42:47.819Z,87.29
2022-12-31T10:47:13.728Z,86.26
2022-12-31T10:51:40.972Z,85.65
2022-12-31T10:56:07.908Z,83.66
2022-12-31T11:00:16.067Z,84.61
2022-12-31T11:04:47.573Z,83.79
2022-12-31T11:09:14.019Z,84.09
2022-12-31T11:13:53.366Z,83.32
2022-12-31T11:18:05.292Z,81.29
2022-12-31T11:22:23.194Z,81.31
2022-12-31T11:26:30.600Z,80.79
2022-12-31T11:30:57.240Z,80.29
2022-12-31T11:35:16.864Z,79.81
2022-12-31T11:39:46.560Z,79.05
2022-12-31T11:44:27.187Z,78.90
2022-12-31T11:48:57.571Z,78.76
2022-12-31T11:53:24.034Z,77.57
2022-12-31T11:57:35.629Z,76.46
2022-12-31T12:02:00.954Z,76.57
2022-12-31T12:06:02.608Z,75.70
2022-12-31T12:10:16.701Z,76.03
2022-12-31T12:14:20.727Z,76.01
2022-12-31T12:18:42.328Z,75.47
2022-12-31T12:22:56.306Z,75.96
2022-12-31T12:26:58.168Z,74.50
2022-12-31T12:31:02.458Z,74.92
2022-12-31T12:35:23.216Z,72.96
2022-12-31T12:39:33.213Z,72.10
2022-12-31T12:43:37.401Z,71.46
2022-12-31T12:47:44.668Z,71.15
2022-12-31T12:51:49.011Z,71.11
2022-12-31T12:56:05.871Z,71.85
2022-12-31T13:00:22.920Z,72.45
2022-12-31T13:04:37.814Z,73.15
2022-12-31T13:09:04.247Z,74.02
2022-12-31T13:13:25.265Z,74.25
2022-12-31T13:17:37.116Z,74.02
2022-12-31T13:21:59.381Z,73.73
2022-12-31T13:26:11.436Z,73.66
2022-12-31T13:30:30.868Z,74.18
2022-12-31T13:34:37.414Z,73.79
2022-12-31T13:38:44.673Z,72.96
2022-12-31T13:42:55.145Z,73.26
2022-12-31T13:47:10.639Z,73.55
2022-12-31T13:51:24.350Z,72.77
2022-12-31T13:55:34.299Z,73.08
2022-12-31T13:59:39.617Z,73.63
2022-12-31T14:03:59.494Z,74.22
2022-12-31T14:08:04.879Z,73.89
2022-12-31T14:12:15.956Z,73.76
2022-12-31T14:16:38.465Z,73.49
2022-12-31T14:20:54.200Z,73.72
2022-12-31T14:24:59.361Z,73.14
2022-12-31T14:29:09.971Z,72.84
2022-12-31T14:33:29.460Z,72.66
2022-12-31T14:37:52.096Z,72.77
2022-12-31T14:42:10.568Z,71.74
2022-12-31T14:46:39.023Z,70.99
2022-12-31T14:50:45.377Z,71.34
2022-12-31T14:55:02.041Z,72.77
2022-12-31T14:59:04.309Z,74.10
2022-12-31T15:03:07.228Z,75.18
2022-12-31T15:07:30.403Z,76.13
2022-12-31T15:11:46.263Z,77.74
2022-12-31T15:15:53.705Z,79.00
2022-12-31T15:20:13.213Z,79.26
2022-12-31T15:24:23.800Z,80.46
2022-12-31T15:28:39.909Z,81.36
2022-12-31T15:32:46.147Z,82.36
2022-12-31T15:37:02.662Z,83.47
2022-12-31T15:41:26.297Z,84.01
2022-12-31T15:45:38.083Z,84.24
2022-12-31T15:49:45.484Z,84.53
2022-12-31T15:53:53.068Z,84.76
2022-12-31T15:58:00.299Z,85.18
2022-12-31T16:02:02.116Z,85.55
2022-12-31T16:06:10.837Z,86.08
2022-12-31T16:10:20.024Z,85.66
2022-12-31T16:14:36.569Z,85.62
2022-12-31T16:18:43.278Z,85.70
2022-12-31T16:22:52.545Z,84.78
2022-12-31T16:26:57.335Z,84.79
2022-12-31T16:31:06.950Z,84.85
2022-12-31T16:35:26.257Z,84.54
2022-12-31T16:39:32.318Z,84.41
2022-12-31T16:43:39.642Z,84.59
2022-12-31T16:47:43.261Z,84.55
2022-12-31T16:51:50.013Z,84.14
2022-12-31T16:56:00.188Z,84.03
2022-12-31T17:00:06.358Z,83.56
2022-12-31T17:04:15.311Z,83.65
2022-12-31T17:08:38.079Z,83.54
2022-12-31T17:13:27.059Z,83.09
2022-12-31T17:17:22.183Z,82.07
2022-12-31T17:21:27.377Z,81.14
2022-12-31T17:25:33.077Z,80.16
2022-12-31T17:29:36.283Z,79.47
2022-12-31T17:33:38.684Z,78.78
2022-12-31T17:37:40.266Z,77.93
2022-12-31T17:41:46.217Z,76.98
2022-12-31T17:45:51.522Z,76.00
2022-12-31T17:49:53.524Z,74.90
2022-12-31T17:53:55.093Z,73.91
2022-12-31T17:57:57.961Z,73.15
2022-12-31T18:02:05.526Z,72.40
2022-12-31T18:06:16.090Z,72.46
2022-12-31T18:10:21.223Z,71.59
2022-12-31T18:14:22.906Z,71.59
2022-12-31T18:18:27.314Z,71.96
2022-12-31T18:22:28.893Z,72.27
2022-12-31T18:26:32.738Z,72.69
2022-12-31T18:30:36.294Z,72.64
2022-12-31T18:34:38.581Z,72.32
2022-12-31T18:38:40.755Z,72.48
2022-12-31T18:42:43.286Z,72.79
2022-12-31T18:46:44.943Z,73.36
2022-12-31T18:50:48.028Z,73.63
2022-12-31T18:54:49.668Z,74.54
2022-12-31T18:58:51.419Z,75.37
2022-12-31T19:02:53.034Z,76.03
2022-12-31T19:06:55.051Z,75.65
2022-12-31T19:10:56.857Z,74.97
2022-12-31T19:14:59.752Z,74.20
2022-12-31T19:19:08.604Z,73.89
2022-12-31T19:23:19.037Z,72.88
2022-12-31T19:27:20.577Z,70.88
2022-12-31T19:31:22.556Z,71.16
2022-12-31T19:35:24.824Z,69.49
2022-12-31T19:39:26.440Z,68.88
2022-12-31T19:43:28.368Z,69.00
2022-12-31T19:47:29.921Z,68.82
2022-12-31T19:51:31.460Z,69.15
2022-12-31T19:55:33.045Z,69.87
2022-12-31T19:59:34.611Z,70.38
2022-12-31T20:03:36.480Z,70.45
2022-12-31T20:07:38.162Z,70.70
2022-12-31T20:11:39.774Z,70.98
2022-12-31T20:15:47.713Z,71.11
2022-12-31T20:19:49.837Z,70.44
2022-12-31T20:23:53.063Z,70.21
2022-12-31T20:27:55.493Z,69.81
2022-12-31T20:31:57.151Z,70.03
2022-12-31T20:36:05.358Z,70.47
2022-12-31T20:40:07.665Z,70.44
2022-12-31T20:44:09.472Z,70.11
2022-12-31T20:48:11.071Z,69.82
2022-12-31T20:52:13.238Z,69.69
2022-12-31T20:56:16.948Z,69.38
2022-12-31T21:00:20.283Z,69.08
2022-12-31T21:04:23.725Z,68.70
2022-12-31T21:08:32.640Z,68.62
2022-12-31T21:12:45.350Z,68.19
2022-12-31T21:16:47.238Z,67.86
2022-12-31T21:20:50.739Z,67.63
2022-12-31T21:24:52.414Z,67.43
2022-12-31T21:28:54.040Z,67.84
2022-12-31T21:32:55.749Z,66.36
2022-12-31T21:36:57.419Z,65.46
2022-12-31T21:41:04.336Z,65.19
2022-12-31T21:45:06.829Z,64.09
2022-12-31T21:49:08.948Z,64.52
2022-12-31T21:53:10.553Z,64.17
2022-12-31T21:57:12.253Z,63.94
2022-12-31T22:01:39.064Z,63.00
2022-12-31T22:05:49.694Z,64.08
2022-12-31T22:09:51.286Z,63.33
2022-12-31T22:13:53.702Z,63.47
2022-12-31T22:17:55.314Z,63.56
2022-12-31T22:21:56.860Z,64.58
2022-12-31T22:25:59.293Z,65.00
2022-12-31T22:30:01.196Z,65.23
2022-12-31T22:34:02.922Z,65.07
2022-12-31T22:38:09.991Z,64.67
2022-12-31T22:42:13.622Z,64.50
2022-12-31T22:46:21.384Z,65.00
2022-12-31T22:50:23.017Z,65.40
2022-12-31T22:54:24.605Z,65.73
2022-12-31T22:58:26.499Z,66.85
2022-12-31T23:02:28.108Z,67.23
2022-12-31T23:06:29.983Z,67.27
2022-12-31T23:10:49.938Z,67.92
2022-12-31T23:15:10.222Z,68.94
2022-12-31T23:19:30.749Z,70.21
2022-12-31T23:23:32.824Z,71.34
2022-12-31T23:27:34.505Z,71.64
2022-12-31T23:31:37.123Z,72.74
2022-12-31T23:35:38.786Z,73.37
2022-12-31T23:39:40.861Z,73.66
2022-12-31T23:43:42.457Z,74.30
2022-12-31T23:47:44.035Z,74.54
2022-12-31T23:51:45.944Z,74.93
2022-12-31T23:55:47.519Z,74.81
2022-12-31T23:59:49.050Z,75.00
